sensor_id;sensor_type;location;lat;lon;timestamp;P1;durP1;ratioP1;P2;durP2;ratioP2
8791;SDS011;4432;50.890;4.744;2023-05-10T00:00:51;6.13;;;4.33;;
8791;SDS011;4432;50.890;4.744;2023-05-10T00:03:17;8.73;;;4.67;;
8791;SDS011;4432;50.890;4.744;2023-05-10T00:05:42;7.57;;;4.37;;
8791;SDS011;4432;50.890;4.744;2023-05-10T00:08:08;15.00;;;4.90;;
8791;SDS011;4432;50.890;4.744;2023-05-10T00:10:34;10.13;;;5.53;;
8791;SDS011;4432;50.890;4.744;2023-05-10T00:13:00;10.23;;;4.77;;
8791;SDS011;4432;50.890;4.744;2023-05-10T00:15:25;14.50;;;4.50;;
8791;SDS011;4432;50.890;4.744;2023-05-10T00:17:51;10.23;;;5.17;;
8791;SDS011;4432;50.890;4.744;2023-05-10T00:20:17;7.63;;;4.17;;
8791;SDS011;4432;50.890;4.744;2023-05-10T00:22:42;14.60;;;5.33;;
8791;SDS011;4432;50.890;4.744;2023-05-10T00:25:08;8.30;;;5.17;;
8791;SDS011;4432;50.890;4.744;2023-05-10T00:27:35;11.50;;;4.90;;
8791;SDS011;4432;50.890;4.744;2023-05-10T00:30:01;8.70;;;4.13;;
8791;SDS011;4432;50.890;4.744;2023-05-10T00:32:27;6.27;;;4.57;;
8791;SDS011;4432;50.890;4.744;2023-05-10T00:34:52;6.27;;;4.20;;
8791;SDS011;4432;50.890;4.744;2023-05-10T00:37:18;8.80;;;4.50;;
8791;SDS011;4432;50.890;4.744;2023-05-10T00:39:44;9.00;;;4.43;;
8791;SDS011;4432;50.890;4.744;2023-05-10T00:42:09;7.97;;;4.93;;
8791;SDS011;4432;50.890;4.744;2023-05-10T00:44:35;11.30;;;5.53;;
8791;SDS011;4432;50.890;4.744;2023-05-10T00:47:01;7.43;;;4.60;;
8791;SDS011;4432;50.890;4.744;2023-05-10T00:49:27;8.70;;;5.23;;
8791;SDS011;4432;50.890;4.744;2023-05-10T00:51:53;9.30;;;4.77;;
8791;SDS011;4432;50.890;4.744;2023-05-10T00:54:19;8.87;;;4.93;;
8791;SDS011;4432;50.890;4.744;2023-05-10T00:56:45;7.27;;;4.90;;
8791;SDS011;4432;50.890;4.744;2023-05-10T00:59:14;8.97;;;4.80;;
8791;SDS011;4432;50.890;4.744;2023-05-10T01:01:42;11.83;;;4.93;;
8791;SDS011;4432;50.890;4.744;2023-05-10T01:04:09;12.57;;;5.30;;
8791;SDS011;4432;50.890;4.744;2023-05-10T01:06:38;13.20;;;5.23;;
8791;SDS011;4432;50.890;4.744;2023-05-10T01:09:04;8.87;;;4.67;;
8791;SDS011;4432;50.890;4.744;2023-05-10T01:11:32;7.60;;;5.33;;
8791;SDS011;4432;50.890;4.744;2023-05-10T01:14:00;8.40;;;5.10;;
8791;SDS011;4432;50.890;4.744;2023-05-10T01:16:27;9.07;;;5.77;;
8791;SDS011;4432;50.890;4.744;2023-05-10T01:18:54;12.33;;;5.60;;
8791;SDS011;4432;50.890;4.744;2023-05-10T01:21:27;10.57;;;4.77;;
8791;SDS011;4432;50.890;4.744;2023-05-10T01:35:02;10.47;;;5.77;;
8791;SDS011;4432;50.890;4.744;2023-05-10T01:37:36;10.93;;;5.93;;
8791;SDS011;4432;50.890;4.744;2023-05-10T01:40:16;10.93;;;5.63;;
8791;SDS011;4432;50.890;4.744;2023-05-10T01:42:51;11.50;;;5.97;;
8791;SDS011;4432;50.890;4.744;2023-05-10T01:45:28;8.77;;;5.33;;
8791;SDS011;4432;50.890;4.744;2023-05-10T01:48:06;10.37;;;5.97;;
8791;SDS011;4432;50.890;4.744;2023-05-10T01:50:35;13.07;;;6.43;;
8791;SDS011;4432;50.890;4.744;2023-05-10T01:53:02;15.30;;;6.70;;
8791;SDS011;4432;50.890;4.744;2023-05-10T01:55:32;10.17;;;6.57;;
8791;SDS011;4432;50.890;4.744;2023-05-10T01:58:10;12.07;;;6.87;;
8791;SDS011;4432;50.890;4.744;2023-05-10T02:00:44;9.43;;;6.37;;
8791;SDS011;4432;50.890;4.744;2023-05-10T02:03:11;9.40;;;6.27;;
8791;SDS011;4432;50.890;4.744;2023-05-10T02:05:38;12.07;;;6.53;;
8791;SDS011;4432;50.890;4.744;2023-05-10T02:08:06;10.63;;;6.73;;
8791;SDS011;4432;50.890;4.744;2023-05-10T02:10:34;11.77;;;7.13;;
8791;SDS011;4432;50.890;4.744;2023-05-10T02:13:00;12.80;;;7.00;;
8791;SDS011;4432;50.890;4.744;2023-05-10T02:15:27;9.90;;;6.40;;
8791;SDS011;4432;50.890;4.744;2023-05-10T02:17:55;12.83;;;7.93;;
8791;SDS011;4432;50.890;4.744;2023-05-10T02:20:23;11.97;;;7.27;;
8791;SDS011;4432;50.890;4.744;2023-05-10T02:22:50;16.43;;;8.33;;
8791;SDS011;4432;50.890;4.744;2023-05-10T02:25:19;11.03;;;6.70;;
8791;SDS011;4432;50.890;4.744;2023-05-10T02:27:47;13.93;;;8.17;;
8791;SDS011;4432;50.890;4.744;2023-05-10T02:30:14;14.37;;;7.80;;
8791;SDS011;4432;50.890;4.744;2023-05-10T02:32:40;13.30;;;7.23;;
8791;SDS011;4432;50.890;4.744;2023-05-10T02:35:08;11.87;;;7.27;;
8791;SDS011;4432;50.890;4.744;2023-05-10T02:37:36;12.87;;;7.33;;
8791;SDS011;4432;50.890;4.744;2023-05-10T02:40:03;14.60;;;7.17;;
8791;SDS011;4432;50.890;4.744;2023-05-10T02:42:31;8.73;;;6.73;;
8791;SDS011;4432;50.890;4.744;2023-05-10T02:45:01;14.47;;;7.37;;
8791;SDS011;4432;50.890;4.744;2023-05-10T02:47:30;13.07;;;7.50;;
8791;SDS011;4432;50.890;4.744;2023-05-10T02:49:56;11.30;;;7.07;;
8791;SDS011;4432;50.890;4.744;2023-05-10T02:52:26;17.17;;;7.30;;
8791;SDS011;4432;50.890;4.744;2023-05-10T02:54:55;13.13;;;7.67;;
8791;SDS011;4432;50.890;4.744;2023-05-10T02:57:26;15.43;;;7.33;;
8791;SDS011;4432;50.890;4.744;2023-05-10T02:59:56;12.80;;;6.70;;
8791;SDS011;4432;50.890;4.744;2023-05-10T03:02:22;11.90;;;7.70;;
8791;SDS011;4432;50.890;4.744;2023-05-10T03:04:48;13.00;;;7.27;;
8791;SDS011;4432;50.890;4.744;2023-05-10T03:07:14;18.40;;;8.40;;
8791;SDS011;4432;50.890;4.744;2023-05-10T03:09:40;14.73;;;6.97;;
8791;SDS011;4432;50.890;4.744;2023-05-10T03:18:28;12.20;;;6.47;;
8791;SDS011;4432;50.890;4.744;2023-05-10T03:21:13;11.00;;;6.87;;
8791;SDS011;4432;50.890;4.744;2023-05-10T03:23:48;13.87;;;7.43;;
8791;SDS011;4432;50.890;4.744;2023-05-10T03:26:26;15.67;;;7.63;;
8791;SDS011;4432;50.890;4.744;2023-05-10T03:28:53;14.97;;;7.30;;
8791;SDS011;4432;50.890;4.744;2023-05-10T03:31:20;14.60;;;7.13;;
8791;SDS011;4432;50.890;4.744;2023-05-10T03:33:49;16.10;;;7.97;;
8791;SDS011;4432;50.890;4.744;2023-05-10T03:36:17;12.40;;;7.23;;
8791;SDS011;4432;50.890;4.744;2023-05-10T03:38:43;14.70;;;6.73;;
8791;SDS011;4432;50.890;4.744;2023-05-10T03:41:09;13.50;;;7.20;;
8791;SDS011;4432;50.890;4.744;2023-05-10T03:43:35;17.00;;;7.70;;
8791;SDS011;4432;50.890;4.744;2023-05-10T03:46:04;10.53;;;6.03;;
8791;SDS011;4432;50.890;4.744;2023-05-10T03:48:34;9.87;;;5.57;;
8791;SDS011;4432;50.890;4.744;2023-05-10T03:51:00;11.03;;;5.43;;
8791;SDS011;4432;50.890;4.744;2023-05-10T03:53:25;10.90;;;6.50;;
8791;SDS011;4432;50.890;4.744;2023-05-10T03:55:52;10.43;;;5.80;;
8791;SDS011;4432;50.890;4.744;2023-05-10T03:58:17;9.33;;;5.30;;
8791;SDS011;4432;50.890;4.744;2023-05-10T04:00:43;11.10;;;5.20;;
8791;SDS011;4432;50.890;4.744;2023-05-10T04:03:13;10.90;;;5.40;;
8791;SDS011;4432;50.890;4.744;2023-05-10T04:05:39;11.77;;;5.53;;
8791;SDS011;4432;50.890;4.744;2023-05-10T04:08:05;9.00;;;5.27;;
8791;SDS011;4432;50.890;4.744;2023-05-10T04:10:31;11.23;;;6.50;;
8791;SDS011;4432;50.890;4.744;2023-05-10T04:12:57;16.47;;;6.97;;
8791;SDS011;4432;50.890;4.744;2023-05-10T04:15:23;14.90;;;7.63;;
8791;SDS011;4432;50.890;4.744;2023-05-10T04:17:48;19.07;;;8.47;;
8791;SDS011;4432;50.890;4.744;2023-05-10T04:20:15;17.73;;;8.60;;
8791;SDS011;4432;50.890;4.744;2023-05-10T04:22:41;16.53;;;7.50;;
8791;SDS011;4432;50.890;4.744;2023-05-10T04:25:07;16.50;;;8.37;;
8791;SDS011;4432;50.890;4.744;2023-05-10T04:27:33;20.97;;;8.77;;
8791;SDS011;4432;50.890;4.744;2023-05-10T04:29:59;17.00;;;8.10;;
8791;SDS011;4432;50.890;4.744;2023-05-10T04:32:25;14.97;;;8.17;;
8791;SDS011;4432;50.890;4.744;2023-05-10T04:34:51;18.57;;;8.17;;
8791;SDS011;4432;50.890;4.744;2023-05-10T04:37:17;12.47;;;7.67;;
8791;SDS011;4432;50.890;4.744;2023-05-10T04:39:43;16.57;;;8.20;;
8791;SDS011;4432;50.890;4.744;2023-05-10T04:42:08;17.13;;;8.60;;
8791;SDS011;4432;50.890;4.744;2023-05-10T04:44:34;17.67;;;8.70;;
8791;SDS011;4432;50.890;4.744;2023-05-10T04:47:01;18.97;;;8.47;;
8791;SDS011;4432;50.890;4.744;2023-05-10T04:49:28;17.33;;;8.93;;
8791;SDS011;4432;50.890;4.744;2023-05-10T04:51:54;16.93;;;8.33;;
8791;SDS011;4432;50.890;4.744;2023-05-10T04:54:20;15.83;;;9.27;;
8791;SDS011;4432;50.890;4.744;2023-05-10T04:56:46;23.43;;;9.23;;
8791;SDS011;4432;50.890;4.744;2023-05-10T04:59:12;20.57;;;9.23;;
8791;SDS011;4432;50.890;4.744;2023-05-10T05:01:37;18.17;;;9.83;;
8791;SDS011;4432;50.890;4.744;2023-05-10T05:04:04;20.97;;;9.83;;
8791;SDS011;4432;50.890;4.744;2023-05-10T05:06:30;19.20;;;9.40;;
8791;SDS011;4432;50.890;4.744;2023-05-10T05:08:55;17.90;;;8.80;;
8791;SDS011;4432;50.890;4.744;2023-05-10T05:11:21;21.77;;;9.10;;
8791;SDS011;4432;50.890;4.744;2023-05-10T05:13:47;19.80;;;10.07;;
8791;SDS011;4432;50.890;4.744;2023-05-10T05:16:13;18.93;;;9.97;;
8791;SDS011;4432;50.890;4.744;2023-05-10T05:18:38;21.97;;;10.63;;
8791;SDS011;4432;50.890;4.744;2023-05-10T05:21:14;20.23;;;10.30;;
8791;SDS011;4432;50.890;4.744;2023-05-10T05:23:43;25.37;;;11.20;;
8791;SDS011;4432;50.890;4.744;2023-05-10T05:26:09;19.80;;;9.23;;
8791;SDS011;4432;50.890;4.744;2023-05-10T05:28:35;18.97;;;9.37;;
8791;SDS011;4432;50.890;4.744;2023-05-10T05:31:04;20.73;;;9.20;;
8791;SDS011;4432;50.890;4.744;2023-05-10T05:33:31;22.80;;;10.43;;
8791;SDS011;4432;50.890;4.744;2023-05-10T05:35:56;21.20;;;9.87;;
8791;SDS011;4432;50.890;4.744;2023-05-10T05:38:22;20.97;;;9.50;;
8791;SDS011;4432;50.890;4.744;2023-05-10T05:40:48;18.33;;;8.60;;
8791;SDS011;4432;50.890;4.744;2023-05-10T05:43:14;18.80;;;9.60;;
8791;SDS011;4432;50.890;4.744;2023-05-10T05:45:40;21.47;;;10.67;;
8791;SDS011;4432;50.890;4.744;2023-05-10T05:48:06;16.20;;;9.40;;
8791;SDS011;4432;50.890;4.744;2023-05-10T05:50:32;22.50;;;11.07;;
8791;SDS011;4432;50.890;4.744;2023-05-10T05:52:57;19.03;;;10.77;;
8791;SDS011;4432;50.890;4.744;2023-05-10T05:55:23;23.77;;;10.47;;
8791;SDS011;4432;50.890;4.744;2023-05-10T05:57:50;18.77;;;9.87;;
8791;SDS011;4432;50.890;4.744;2023-05-10T06:00:16;20.27;;;9.90;;
8791;SDS011;4432;50.890;4.744;2023-05-10T06:02:43;20.83;;;9.83;;
8791;SDS011;4432;50.890;4.744;2023-05-10T06:05:08;19.40;;;9.60;;
8791;SDS011;4432;50.890;4.744;2023-05-10T06:07:34;19.53;;;10.37;;
8791;SDS011;4432;50.890;4.744;2023-05-10T06:10:00;19.60;;;9.63;;
8791;SDS011;4432;50.890;4.744;2023-05-10T06:12:26;20.40;;;9.67;;
8791;SDS011;4432;50.890;4.744;2023-05-10T06:14:52;20.03;;;10.37;;
8791;SDS011;4432;50.890;4.744;2023-05-10T06:17:17;18.87;;;10.23;;
8791;SDS011;4432;50.890;4.744;2023-05-10T06:19:43;18.53;;;9.67;;
8791;SDS011;4432;50.890;4.744;2023-05-10T06:22:09;20.97;;;9.90;;
8791;SDS011;4432;50.890;4.744;2023-05-10T06:24:35;21.17;;;10.70;;
8791;SDS011;4432;50.890;4.744;2023-05-10T06:27:00;19.97;;;10.87;;
8791;SDS011;4432;50.890;4.744;2023-05-10T06:29:27;17.47;;;9.03;;
8791;SDS011;4432;50.890;4.744;2023-05-10T06:31:52;20.13;;;9.80;;
8791;SDS011;4432;50.890;4.744;2023-05-10T06:34:19;23.23;;;9.77;;
8791;SDS011;4432;50.890;4.744;2023-05-10T06:36:44;26.50;;;9.97;;
8791;SDS011;4432;50.890;4.744;2023-05-10T06:39:10;26.63;;;11.27;;
8791;SDS011;4432;50.890;4.744;2023-05-10T06:41:37;19.60;;;10.63;;
8791;SDS011;4432;50.890;4.744;2023-05-10T06:44:03;19.93;;;10.43;;
8791;SDS011;4432;50.890;4.744;2023-05-10T06:46:29;24.90;;;10.80;;
8791;SDS011;4432;50.890;4.744;2023-05-10T06:48:54;22.00;;;10.73;;
8791;SDS011;4432;50.890;4.744;2023-05-10T06:51:20;19.07;;;10.67;;
8791;SDS011;4432;50.890;4.744;2023-05-10T06:53:46;20.50;;;10.33;;
8791;SDS011;4432;50.890;4.744;2023-05-10T06:56:12;20.57;;;10.47;;
8791;SDS011;4432;50.890;4.744;2023-05-10T06:58:38;19.37;;;10.73;;
8791;SDS011;4432;50.890;4.744;2023-05-10T07:01:04;20.20;;;11.07;;
8791;SDS011;4432;50.890;4.744;2023-05-10T07:03:30;17.67;;;10.17;;
8791;SDS011;4432;50.890;4.744;2023-05-10T07:06:00;20.73;;;10.00;;
8791;SDS011;4432;50.890;4.744;2023-05-10T07:08:28;21.37;;;10.40;;
8791;SDS011;4432;50.890;4.744;2023-05-10T07:11:01;15.33;;;8.30;;
8791;SDS011;4432;50.890;4.744;2023-05-10T07:13:28;13.50;;;6.13;;
8791;SDS011;4432;50.890;4.744;2023-05-10T07:15:58;12.67;;;5.03;;
8791;SDS011;4432;50.890;4.744;2023-05-10T07:18:24;6.50;;;4.13;;
8791;SDS011;4432;50.890;4.744;2023-05-10T07:20:50;5.57;;;3.80;;
8791;SDS011;4432;50.890;4.744;2023-05-10T07:23:16;9.07;;;4.23;;
8791;SDS011;4432;50.890;4.744;2023-05-10T07:25:46;6.20;;;3.77;;
8791;SDS011;4432;50.890;4.744;2023-05-10T07:28:13;7.40;;;4.10;;
8791;SDS011;4432;50.890;4.744;2023-05-10T07:30:39;8.43;;;4.63;;
8791;SDS011;4432;50.890;4.744;2023-05-10T07:33:05;7.60;;;4.50;;
8791;SDS011;4432;50.890;4.744;2023-05-10T07:35:31;7.30;;;4.57;;
8791;SDS011;4432;50.890;4.744;2023-05-10T07:37:56;9.53;;;3.90;;
8791;SDS011;4432;50.890;4.744;2023-05-10T07:40:22;7.93;;;4.20;;
8791;SDS011;4432;50.890;4.744;2023-05-10T07:42:48;7.47;;;4.27;;
8791;SDS011;4432;50.890;4.744;2023-05-10T07:45:14;6.80;;;3.87;;
8791;SDS011;4432;50.890;4.744;2023-05-10T07:47:39;4.70;;;3.10;;
8791;SDS011;4432;50.890;4.744;2023-05-10T07:50:05;3.60;;;2.83;;
8791;SDS011;4432;50.890;4.744;2023-05-10T07:52:32;3.73;;;2.70;;
8791;SDS011;4432;50.890;4.744;2023-05-10T07:54:58;2.77;;;2.47;;
8791;SDS011;4432;50.890;4.744;2023-05-10T07:57:23;2.27;;;2.03;;
8791;SDS011;4432;50.890;4.744;2023-05-10T07:59:49;3.50;;;2.73;;
8791;SDS011;4432;50.890;4.744;2023-05-10T08:02:15;3.13;;;2.40;;
8791;SDS011;4432;50.890;4.744;2023-05-10T08:04:40;5.23;;;2.83;;
8791;SDS011;4432;50.890;4.744;2023-05-10T08:07:06;4.80;;;3.23;;
8791;SDS011;4432;50.890;4.744;2023-05-10T08:09:32;5.50;;;3.43;;
8791;SDS011;4432;50.890;4.744;2023-05-10T08:11:58;5.03;;;3.17;;
8791;SDS011;4432;50.890;4.744;2023-05-10T08:14:25;6.27;;;2.83;;
8791;SDS011;4432;50.890;4.744;2023-05-10T08:16:52;5.73;;;3.30;;
8791;SDS011;4432;50.890;4.744;2023-05-10T08:19:18;4.83;;;2.90;;
8791;SDS011;4432;50.890;4.744;2023-05-10T08:21:45;6.87;;;4.13;;
8791;SDS011;4432;50.890;4.744;2023-05-10T08:24:10;8.73;;;4.23;;
8791;SDS011;4432;50.890;4.744;2023-05-10T08:26:36;8.90;;;4.37;;
8791;SDS011;4432;50.890;4.744;2023-05-10T08:29:02;8.60;;;4.80;;
8791;SDS011;4432;50.890;4.744;2023-05-10T08:31:28;11.73;;;5.20;;
8791;SDS011;4432;50.890;4.744;2023-05-10T08:33:53;8.23;;;4.87;;
8791;SDS011;4432;50.890;4.744;2023-05-10T08:36:19;9.63;;;5.17;;
8791;SDS011;4432;50.890;4.744;2023-05-10T08:38:53;9.93;;;5.50;;
8791;SDS011;4432;50.890;4.744;2023-05-10T08:41:23;9.97;;;5.40;;
8791;SDS011;4432;50.890;4.744;2023-05-10T08:43:50;7.17;;;4.27;;
8791;SDS011;4432;50.890;4.744;2023-05-10T08:46:18;5.77;;;4.53;;
8791;SDS011;4432;50.890;4.744;2023-05-10T08:48:45;9.70;;;4.80;;
8791;SDS011;4432;50.890;4.744;2023-05-10T08:51:15;7.13;;;4.73;;
8791;SDS011;4432;50.890;4.744;2023-05-10T08:53:44;7.90;;;5.17;;
8791;SDS011;4432;50.890;4.744;2023-05-10T08:56:10;6.67;;;4.27;;
8791;SDS011;4432;50.890;4.744;2023-05-10T08:58:36;9.63;;;5.27;;
8791;SDS011;4432;50.890;4.744;2023-05-10T09:01:03;10.30;;;5.63;;
8791;SDS011;4432;50.890;4.744;2023-05-10T09:03:30;8.17;;;4.60;;
8791;SDS011;4432;50.890;4.744;2023-05-10T09:05:56;8.20;;;4.00;;
8791;SDS011;4432;50.890;4.744;2023-05-10T09:08:22;8.53;;;4.60;;
8791;SDS011;4432;50.890;4.744;2023-05-10T09:10:52;7.87;;;4.37;;
8791;SDS011;4432;50.890;4.744;2023-05-10T09:13:20;5.67;;;4.03;;
8791;SDS011;4432;50.890;4.744;2023-05-10T09:15:47;5.37;;;3.60;;
8791;SDS011;4432;50.890;4.744;2023-05-10T09:18:13;8.50;;;3.80;;
8791;SDS011;4432;50.890;4.744;2023-05-10T09:20:39;8.67;;;4.80;;
8791;SDS011;4432;50.890;4.744;2023-05-10T09:23:05;5.77;;;4.27;;
8791;SDS011;4432;50.890;4.744;2023-05-10T09:25:32;5.97;;;3.97;;
8791;SDS011;4432;50.890;4.744;2023-05-10T09:28:02;9.60;;;4.53;;
8791;SDS011;4432;50.890;4.744;2023-05-10T09:30:32;7.57;;;4.20;;
8791;SDS011;4432;50.890;4.744;2023-05-10T09:32:58;5.60;;;3.67;;
8791;SDS011;4432;50.890;4.744;2023-05-10T09:35:25;6.03;;;3.63;;
8791;SDS011;4432;50.890;4.744;2023-05-10T09:37:54;6.83;;;3.43;;
8791;SDS011;4432;50.890;4.744;2023-05-10T09:40:21;5.70;;;3.60;;
8791;SDS011;4432;50.890;4.744;2023-05-10T09:45:19;5.83;;;3.33;;
8791;SDS011;4432;50.890;4.744;2023-05-10T09:47:45;4.53;;;3.40;;
8791;SDS011;4432;50.890;4.744;2023-05-10T09:50:11;4.93;;;3.30;;
8791;SDS011;4432;50.890;4.744;2023-05-10T09:55:23;4.00;;;3.03;;
8791;SDS011;4432;50.890;4.744;2023-05-10T09:57:58;4.80;;;2.83;;
8791;SDS011;4432;50.890;4.744;2023-05-10T10:00:25;3.50;;;2.50;;
8791;SDS011;4432;50.890;4.744;2023-05-10T10:02:56;3.63;;;2.30;;
8791;SDS011;4432;50.890;4.744;2023-05-10T10:05:30;2.23;;;2.03;;
8791;SDS011;4432;50.890;4.744;2023-05-10T10:08:00;3.77;;;2.30;;
8791;SDS011;4432;50.890;4.744;2023-05-10T10:10:28;3.40;;;2.13;;
8791;SDS011;4432;50.890;4.744;2023-05-10T10:12:55;2.20;;;1.93;;
8791;SDS011;4432;50.890;4.744;2023-05-10T10:15:21;3.90;;;2.53;;
8791;SDS011;4432;50.890;4.744;2023-05-10T10:17:48;3.07;;;1.70;;
8791;SDS011;4432;50.890;4.744;2023-05-10T10:20:15;1.73;;;1.63;;
8791;SDS011;4432;50.890;4.744;2023-05-10T10:22:42;6.90;;;1.97;;
8791;SDS011;4432;50.890;4.744;2023-05-10T10:25:10;2.17;;;1.97;;
8791;SDS011;4432;50.890;4.744;2023-05-10T10:35:30;2.40;;;1.57;;
8791;SDS011;4432;50.890;4.744;2023-05-10T10:37:57;1.77;;;1.63;;
8791;SDS011;4432;50.890;4.744;2023-05-10T10:40:27;1.70;;;1.60;;
8791;SDS011;4432;50.890;4.744;2023-05-10T10:42:53;1.70;;;1.53;;
8791;SDS011;4432;50.890;4.744;2023-05-10T10:45:20;1.80;;;1.60;;
8791;SDS011;4432;50.890;4.744;2023-05-10T10:47:47;1.73;;;1.60;;
8791;SDS011;4432;50.890;4.744;2023-05-10T10:50:13;3.97;;;1.70;;
8791;SDS011;4432;50.890;4.744;2023-05-10T10:52:44;3.00;;;1.40;;
8791;SDS011;4432;50.890;4.744;2023-05-10T11:02:50;2.33;;;1.40;;
8791;SDS011;4432;50.890;4.744;2023-05-10T11:05:23;1.30;;;1.20;;
8791;SDS011;4432;50.890;4.744;2023-05-10T11:08:15;1.30;;;1.13;;
8791;SDS011;4432;50.890;4.744;2023-05-10T11:18:59;3.10;;;1.30;;
8791;SDS011;4432;50.890;4.744;2023-05-10T11:21:28;1.30;;;1.20;;
8791;SDS011;4432;50.890;4.744;2023-05-10T11:23:56;1.27;;;1.17;;
8791;SDS011;4432;50.890;4.744;2023-05-10T11:26:23;0.93;;;0.93;;
8791;SDS011;4432;50.890;4.744;2023-05-10T11:28:51;1.90;;;1.03;;
8791;SDS011;4432;50.890;4.744;2023-05-10T11:31:23;0.90;;;0.90;;
8791;SDS011;4432;50.890;4.744;2023-05-10T11:33:55;0.70;;;0.70;;
8791;SDS011;4432;50.890;4.744;2023-05-10T11:36:28;1.00;;;1.00;;
8791;SDS011;4432;50.890;4.744;2023-05-10T11:38:57;1.20;;;1.10;;
8791;SDS011;4432;50.890;4.744;2023-05-10T11:41:23;0.90;;;0.90;;
8791;SDS011;4432;50.890;4.744;2023-05-10T11:43:50;0.87;;;0.87;;
8791;SDS011;4432;50.890;4.744;2023-05-10T11:46:18;1.10;;;1.10;;
8791;SDS011;4432;50.890;4.744;2023-05-10T11:48:45;0.93;;;0.80;;
8791;SDS011;4432;50.890;4.744;2023-05-10T11:51:15;0.90;;;0.90;;
8791;SDS011;4432;50.890;4.744;2023-05-10T11:53:45;1.00;;;0.97;;
8791;SDS011;4432;50.890;4.744;2023-05-10T11:56:10;0.87;;;0.87;;
8791;SDS011;4432;50.890;4.744;2023-05-10T11:58:37;1.00;;;1.00;;
8791;SDS011;4432;50.890;4.744;2023-05-10T12:01:04;0.80;;;0.80;;
8791;SDS011;4432;50.890;4.744;2023-05-10T12:03:31;1.10;;;1.10;;
8791;SDS011;4432;50.890;4.744;2023-05-10T12:05:58;1.00;;;1.00;;
8791;SDS011;4432;50.890;4.744;2023-05-10T12:08:26;3.23;;;1.20;;
8791;SDS011;4432;50.890;4.744;2023-05-10T12:10:53;1.57;;;1.33;;
8791;SDS011;4432;50.890;4.744;2023-05-10T12:13:30;1.73;;;1.63;;
8791;SDS011;4432;50.890;4.744;2023-05-10T12:15:58;2.43;;;1.60;;
8791;SDS011;4432;50.890;4.744;2023-05-10T12:18:24;1.57;;;1.30;;
8791;SDS011;4432;50.890;4.744;2023-05-10T12:20:53;1.47;;;1.37;;
8791;SDS011;4432;50.890;4.744;2023-05-10T12:23:27;1.80;;;1.50;;
8791;SDS011;4432;50.890;4.744;2023-05-10T12:25:53;1.93;;;1.40;;
8791;SDS011;4432;50.890;4.744;2023-05-10T12:28:26;1.67;;;1.57;;
8791;SDS011;4432;50.890;4.744;2023-05-10T12:30:55;1.60;;;1.50;;
8791;SDS011;4432;50.890;4.744;2023-05-10T12:33:23;1.50;;;1.40;;
8791;SDS011;4432;50.890;4.744;2023-05-10T12:35:54;1.67;;;1.57;;
8791;SDS011;4432;50.890;4.744;2023-05-10T12:38:25;1.87;;;1.30;;
8791;SDS011;4432;50.890;4.744;2023-05-10T12:40:58;2.03;;;1.50;;
8791;SDS011;4432;50.890;4.744;2023-05-10T12:43:25;1.30;;;1.20;;
8791;SDS011;4432;50.890;4.744;2023-05-10T12:45:51;1.50;;;1.40;;
8791;SDS011;4432;50.890;4.744;2023-05-10T12:48:17;2.80;;;1.30;;
8791;SDS011;4432;50.890;4.744;2023-05-10T12:50:43;1.70;;;1.60;;
8791;SDS011;4432;50.890;4.744;2023-05-10T12:53:09;1.60;;;1.50;;
8791;SDS011;4432;50.890;4.744;2023-05-10T12:55:34;1.50;;;1.40;;
8791;SDS011;4432;50.890;4.744;2023-05-10T12:58:00;2.03;;;1.30;;
8791;SDS011;4432;50.890;4.744;2023-05-10T13:00:26;2.60;;;1.60;;
8791;SDS011;4432;50.890;4.744;2023-05-10T13:02:52;1.50;;;1.40;;
8791;SDS011;4432;50.890;4.744;2023-05-10T13:05:18;1.37;;;1.27;;
8791;SDS011;4432;50.890;4.744;2023-05-10T13:07:44;1.30;;;1.20;;
8791;SDS011;4432;50.890;4.744;2023-05-10T13:10:10;1.20;;;1.10;;
8791;SDS011;4432;50.890;4.744;2023-05-10T13:12:36;1.80;;;1.17;;
8791;SDS011;4432;50.890;4.744;2023-05-10T13:15:02;1.10;;;1.10;;
8791;SDS011;4432;50.890;4.744;2023-05-10T13:17:28;1.40;;;1.30;;
8791;SDS011;4432;50.890;4.744;2023-05-10T13:19:54;1.30;;;1.20;;
8791;SDS011;4432;50.890;4.744;2023-05-10T13:22:20;1.23;;;1.20;;
8791;SDS011;4432;50.890;4.744;2023-05-10T13:24:45;1.20;;;1.10;;
8791;SDS011;4432;50.890;4.744;2023-05-10T13:27:11;1.40;;;1.30;;
8791;SDS011;4432;50.890;4.744;2023-05-10T13:29:37;1.50;;;1.40;;
8791;SDS011;4432;50.890;4.744;2023-05-10T13:32:03;1.70;;;1.60;;
8791;SDS011;4432;50.890;4.744;2023-05-10T13:34:29;1.40;;;1.30;;
8791;SDS011;4432;50.890;4.744;2023-05-10T13:36:54;3.23;;;1.40;;
8791;SDS011;4432;50.890;4.744;2023-05-10T13:39:21;7.70;;;1.33;;
8791;SDS011;4432;50.890;4.744;2023-05-10T13:41:47;1.20;;;1.10;;
8791;SDS011;4432;50.890;4.744;2023-05-10T13:44:13;1.67;;;1.20;;
8791;SDS011;4432;50.890;4.744;2023-05-10T13:46:40;1.10;;;1.10;;
8791;SDS011;4432;50.890;4.744;2023-05-10T13:49:08;1.00;;;1.00;;
8791;SDS011;4432;50.890;4.744;2023-05-10T13:51:34;1.40;;;1.30;;
8791;SDS011;4432;50.890;4.744;2023-05-10T13:54:01;1.60;;;1.50;;
8791;SDS011;4432;50.890;4.744;2023-05-10T13:56:28;1.97;;;1.37;;
8791;SDS011;4432;50.890;4.744;2023-05-10T13:58:53;1.93;;;1.47;;
8791;SDS011;4432;50.890;4.744;2023-05-10T14:01:19;1.40;;;1.30;;
8791;SDS011;4432;50.890;4.744;2023-05-10T14:03:45;1.43;;;1.33;;
8791;SDS011;4432;50.890;4.744;2023-05-10T14:06:11;1.60;;;1.50;;
8791;SDS011;4432;50.890;4.744;2023-05-10T14:08:36;1.40;;;1.30;;
8791;SDS011;4432;50.890;4.744;2023-05-10T14:11:02;1.53;;;1.43;;
8791;SDS011;4432;50.890;4.744;2023-05-10T14:13:28;1.43;;;1.33;;
8791;SDS011;4432;50.890;4.744;2023-05-10T14:15:54;1.60;;;1.40;;
8791;SDS011;4432;50.890;4.744;2023-05-10T14:18:20;3.60;;;1.60;;
8791;SDS011;4432;50.890;4.744;2023-05-10T14:20:46;1.93;;;1.77;;
8791;SDS011;4432;50.890;4.744;2023-05-10T14:23:12;2.27;;;1.93;;
8791;SDS011;4432;50.890;4.744;2023-05-10T14:25:40;4.77;;;1.30;;
8791;SDS011;4432;50.890;4.744;2023-05-10T14:28:06;2.20;;;2.00;;
8791;SDS011;4432;50.890;4.744;2023-05-10T14:30:32;2.13;;;1.93;;
8791;SDS011;4432;50.890;4.744;2023-05-10T14:33:01;1.83;;;1.40;;
8791;SDS011;4432;50.890;4.744;2023-05-10T14:35:28;2.17;;;1.67;;
8791;SDS011;4432;50.890;4.744;2023-05-10T14:37:56;1.97;;;1.87;;
8791;SDS011;4432;50.890;4.744;2023-05-10T14:40:22;4.80;;;2.17;;
8791;SDS011;4432;50.890;4.744;2023-05-10T14:42:48;2.30;;;1.77;;
8791;SDS011;4432;50.890;4.744;2023-05-10T14:45:15;1.90;;;1.80;;
8791;SDS011;4432;50.890;4.744;2023-05-10T14:47:40;1.60;;;1.50;;
8791;SDS011;4432;50.890;4.744;2023-05-10T14:50:06;3.93;;;1.90;;
8791;SDS011;4432;50.890;4.744;2023-05-10T14:52:32;2.37;;;2.17;;
8791;SDS011;4432;50.890;4.744;2023-05-10T14:54:58;1.93;;;1.70;;
8791;SDS011;4432;50.890;4.744;2023-05-10T14:57:26;3.67;;;1.97;;
8791;SDS011;4432;50.890;4.744;2023-05-10T14:59:54;2.50;;;2.30;;
8791;SDS011;4432;50.890;4.744;2023-05-10T15:02:21;2.47;;;2.27;;
8791;SDS011;4432;50.890;4.744;2023-05-10T15:04:47;1.87;;;1.77;;
8791;SDS011;4432;50.890;4.744;2023-05-10T15:07:12;5.27;;;1.93;;
8791;SDS011;4432;50.890;4.744;2023-05-10T15:09:41;2.77;;;2.03;;
8791;SDS011;4432;50.890;4.744;2023-05-10T15:12:07;5.60;;;2.30;;
8791;SDS011;4432;50.890;4.744;2023-05-10T15:14:32;2.10;;;1.90;;
8791;SDS011;4432;50.890;4.744;2023-05-10T15:16:59;2.33;;;2.13;;
8791;SDS011;4432;50.890;4.744;2023-05-10T15:19:24;2.13;;;1.93;;
8791;SDS011;4432;50.890;4.744;2023-05-10T15:21:50;3.27;;;2.20;;
8791;SDS011;4432;50.890;4.744;2023-05-10T15:24:16;2.23;;;1.90;;
8791;SDS011;4432;50.890;4.744;2023-05-10T15:26:42;4.37;;;2.37;;
8791;SDS011;4432;50.890;4.744;2023-05-10T15:29:08;2.67;;;2.47;;
8791;SDS011;4432;50.890;4.744;2023-05-10T15:31:34;2.90;;;2.50;;
8791;SDS011;4432;50.890;4.744;2023-05-10T15:34:00;3.20;;;2.80;;
8791;SDS011;4432;50.890;4.744;2023-05-10T15:36:26;3.80;;;3.23;;
8791;SDS011;4432;50.890;4.744;2023-05-10T15:38:55;5.17;;;3.50;;
8791;SDS011;4432;50.890;4.744;2023-05-10T15:41:21;4.70;;;3.97;;
8791;SDS011;4432;50.890;4.744;2023-05-10T15:43:46;5.23;;;3.80;;
8791;SDS011;4432;50.890;4.744;2023-05-10T15:46:12;3.80;;;3.20;;
8791;SDS011;4432;50.890;4.744;2023-05-10T15:48:38;5.90;;;3.47;;
8791;SDS011;4432;50.890;4.744;2023-05-10T15:51:04;4.43;;;3.10;;
8791;SDS011;4432;50.890;4.744;2023-05-10T15:53:30;8.70;;;3.93;;
8791;SDS011;4432;50.890;4.744;2023-05-10T15:55:56;6.70;;;3.90;;